createdAt,value
2019-05-01T00:02:29.673Z,99.90
2019-05-01T00:05:14.945Z,99.90
2019-05-01T00:07:48.100Z,99.90
2019-05-01T00:10:22.978Z,99.90
2019-05-01T00:12:55.744Z,99.90
2019-05-01T00:15:30.334Z,99.90
2019-05-01T00:18:03.413Z,99.90
2019-05-01T00:20:36.002Z,99.90
2019-05-01T00:23:08.015Z,99.90
2019-05-01T00:25:39.969Z,99.90
2019-05-01T00:28:12.594Z,99.90
2019-05-01T00:30:45.016Z,99.90
2019-05-01T00:33:18.574Z,99.90
2019-05-01T00:35:50.626Z,99.90
2019-05-01T00:38:22.635Z,99.90
2019-05-01T00:40:55.006Z,99.90
2019-05-01T00:43:27.236Z,99.90
2019-05-01T00:45:59.188Z,99.90
2019-05-01T00:48:31.096Z,99.90
2019-05-01T00:51:03.050Z,99.90
2019-05-01T00:53:34.966Z,99.90
2019-05-01T00:56:28.887Z,99.90
2019-05-01T00:59:19.623Z,99.90
2019-05-01T01:02:07.630Z,99.90
2019-05-01T01:04:39.622Z,99.90
2019-05-01T01:07:11.581Z,99.90
2019-05-01T01:09:43.484Z,99.90
2019-05-01T01:12:15.434Z,99.90
2019-05-01T01:14:47.376Z,99.90
2019-05-01T01:17:19.660Z,99.90
2019-05-01T01:19:51.562Z,99.90
2019-05-01T01:22:24.366Z,99.90
2019-05-01T01:24:56.899Z,99.90
2019-05-01T01:27:28.951Z,99.90
2019-05-01T01:30:01.350Z,99.90
2019-05-01T01:32:33.924Z,99.90
2019-05-01T01:35:06.726Z,99.90
2019-05-01T01:37:38.998Z,99.90
2019-05-01T01:40:12.613Z,99.90
2019-05-01T01:42:46.601Z,99.90
2019-05-01T01:45:28.191Z,99.90
2019-05-01T01:48:10.626Z,99.90
2019-05-01T01:50:46.110Z,99.90
2019-05-01T01:53:22.099Z,99.90
2019-05-01T01:55:55.599Z,99.90
2019-05-01T01:58:28.382Z,99.90
2019-05-01T02:01:18.822Z,99.90
2019-05-01T02:03:55.547Z,99.90
2019-05-01T02:06:27.721Z,99.90
2019-05-01T02:09:00.203Z,99.90
2019-05-01T02:11:32.362Z,99.90
2019-05-01T02:14:05.062Z,99.90
2019-05-01T02:16:37.434Z,99.90
2019-05-01T02:19:09.905Z,99.90
2019-05-01T02:21:41.908Z,99.90
2019-05-01T02:24:13.973Z,99.90
2019-05-01T02:26:48.840Z,99.90
2019-05-01T02:29:33.155Z,99.90
2019-05-01T02:32:06.291Z,99.90
2019-05-01T02:34:42.692Z,99.90
2019-05-01T02:37:18.304Z,99.90
2019-05-01T02:39:52.207Z,99.90
2019-05-01T02:42:28.492Z,99.90
2019-05-01T02:45:04.286Z,99.90
2019-05-01T02:47:38.058Z,99.90
2019-05-01T02:50:12.515Z,99.90
2019-05-01T02:52:46.433Z,99.90
2019-05-01T02:55:25.875Z,99.90
2019-05-01T02:57:58.946Z,99.90
2019-05-01T03:00:31.295Z,99.90
2019-05-01T03:03:04.535Z,99.90
2019-05-01T03:05:37.000Z,99.90
2019-05-01T03:08:10.149Z,99.90
2019-05-01T03:10:43.533Z,99.90
2019-05-01T03:13:17.227Z,99.90
2019-05-01T03:15:50.483Z,99.90
2019-05-01T03:18:28.671Z,99.90
2019-05-01T03:21:09.530Z,99.90
2019-05-01T03:23:56.307Z,99.90
2019-05-01T03:26:28.980Z,99.90
2019-05-01T03:29:01.109Z,99.90
2019-05-01T03:31:33.465Z,99.90
2019-05-01T03:34:05.571Z,99.90
2019-05-01T03:36:37.529Z,99.90
2019-05-01T03:39:09.950Z,99.90
2019-05-01T03:41:42.903Z,99.90
2019-05-01T03:44:17.467Z,99.90
2019-05-01T03:46:50.479Z,99.90
2019-05-01T03:49:22.794Z,99.90
2019-05-01T03:51:55.592Z,99.90
2019-05-01T03:54:28.226Z,99.90
2019-05-01T03:57:00.498Z,99.90
2019-05-01T03:59:32.406Z,99.90
2019-05-01T04:02:31.700Z,99.90
2019-05-01T04:04:48.199Z,99.90
2019-05-01T04:07:20.487Z,99.90
2019-05-01T04:09:52.774Z,99.90
2019-05-01T04:12:25.746Z,99.90
2019-05-01T04:14:58.187Z,99.90
2019-05-01T04:17:39.865Z,99.90
2019-05-01T04:20:12.695Z,99.90
2019-05-01T04:22:46.206Z,99.90
2019-05-01T04:25:19.147Z,99.90
2019-05-01T04:27:53.577Z,99.90
2019-05-01T04:30:38.255Z,99.90
2019-05-01T04:33:12.812Z,99.90
2019-05-01T04:36:00.021Z,99.90
2019-05-01T04:38:33.315Z,99.90
2019-05-01T04:41:05.854Z,99.90
2019-05-01T04:43:38.011Z,99.90
2019-05-01T04:46:10.217Z,99.90
2019-05-01T04:48:43.467Z,99.90
2019-05-01T04:51:15.675Z,99.90
2019-05-01T04:53:48.329Z,99.90
2019-05-01T04:56:21.011Z,99.90
2019-05-01T04:58:53.763Z,99.90
2019-05-01T05:01:29.905Z,99.90
2019-05-01T05:04:02.146Z,99.90
2019-05-01T05:06:35.142Z,99.90
2019-05-01T05:09:08.445Z,99.90
2019-05-01T05:11:50.616Z,99.90
2019-05-01T05:14:27.638Z,99.90
2019-05-01T05:17:08.996Z,99.90
2019-05-01T05:19:42.761Z,99.90
2019-05-01T05:22:16.553Z,99.90
2019-05-01T05:24:48.817Z,99.90
2019-05-01T05:27:23.585Z,99.90
2019-05-01T05:29:59.266Z,99.90
2019-05-01T05:32:34.173Z,99.90
2019-05-01T05:35:09.066Z,99.90
2019-05-01T05:38:03.118Z,99.90
2019-05-01T05:40:37.008Z,99.90
2019-05-01T05:43:10.030Z,99.90
2019-05-01T05:45:42.906Z,99.90
2019-05-01T05:48:15.240Z,99.90
2019-05-01T05:51:14.576Z,99.90
2019-05-01T05:53:52.424Z,99.90
2019-05-01T05:56:34.639Z,99.90
2019-05-01T05:59:13.584Z,99.90
2019-05-01T06:02:06.762Z,99.90
2019-05-01T06:05:04.670Z,99.90
2019-05-01T06:07:45.042Z,99.90
2019-05-01T06:10:36.557Z,99.90
2019-05-01T06:13:17.990Z,99.90
2019-05-01T06:16:12.356Z,99.90
2019-05-01T06:19:14.430Z,99.90
2019-05-01T06:22:04.962Z,99.90
2019-05-01T06:24:42.344Z,99.90
2019-05-01T06:27:15.140Z,99.90
2019-05-01T06:29:47.332Z,99.90
2019-05-01T06:32:19.381Z,99.90
2019-05-01T06:34:52.345Z,99.90
2019-05-01T06:37:27.603Z,99.90
2019-05-01T06:39:59.511Z,99.90
2019-05-01T06:42:31.565Z,99.90
2019-05-01T06:45:13.107Z,99.90
2019-05-01T06:47:57.003Z,99.90
2019-05-01T06:50:36.974Z,99.90
2019-05-01T06:53:10.088Z,99.90
2019-05-01T06:55:43.301Z,99.90
2019-05-01T06:58:20.377Z,99.70
2019-05-01T07:00:49.986Z,99.90
2019-05-01T07:03:23.318Z,99.90
2019-05-01T07:05:56.288Z,99.90
2019-05-01T07:08:29.431Z,99.60
2019-05-01T07:11:02.941Z,98.60
2019-05-01T07:13:40.063Z,98.80
2019-05-01T07:16:11.287Z,98.80
2019-05-01T07:18:43.506Z,98.50
2019-05-01T07:21:15.897Z,98.40
2019-05-01T07:23:52.298Z,97.70
2019-05-01T07:26:26.080Z,97.60
2019-05-01T07:29:01.414Z,97.40
2019-05-01T07:31:34.786Z,97.30
2019-05-01T07:34:16.372Z,96.40
2019-05-01T07:36:45.669Z,96.60
2019-05-01T07:39:16.116Z,96.80
2019-05-01T07:41:49.231Z,96.50
2019-05-01T07:44:35.178Z,97.00
2019-05-01T07:47:36.156Z,97.00
2019-05-01T07:50:14.407Z,96.90
2019-05-01T07:52:52.323Z,96.60
2019-05-01T07:55:36.859Z,96.60
2019-05-01T07:58:15.820Z,96.60
2019-05-01T08:01:07.939Z,96.90
2019-05-01T08:03:42.657Z,96.00
2019-05-01T08:06:16.255Z,95.60
2019-05-01T08:08:48.934Z,95.90
2019-05-01T08:11:21.380Z,96.00
2019-05-01T08:14:06.591Z,96.00
2019-05-01T08:16:28.467Z,94.80
2019-05-01T08:19:16.587Z,94.70
2019-05-01T08:22:01.733Z,95.50
2019-05-01T08:24:34.008Z,95.70
2019-05-01T08:27:08.342Z,95.70
2019-05-01T08:30:01.410Z,95.90
2019-05-01T08:32:52.702Z,96.00
2019-05-01T08:35:27.183Z,95.50
2019-05-01T08:38:00.334Z,95.50
2019-05-01T08:40:32.364Z,96.00
2019-05-01T08:43:08.552Z,96.30
2019-05-01T08:46:02.409Z,96.50
2019-05-01T08:48:39.498Z,96.30
2019-05-01T08:51:13.120Z,96.40
2019-05-01T08:53:45.716Z,95.80
2019-05-01T08:56:21.996Z,95.70
2019-05-01T08:58:51.983Z,94.90
2019-05-01T09:01:24.108Z,95.50
2019-05-01T09:03:56.239Z,95.20
2019-05-01T09:06:34.804Z,93.80
2019-05-01T09:09:08.243Z,93.40
2019-05-01T09:11:38.605Z,93.80
2019-05-01T09:14:10.720Z,93.70
2019-05-01T09:16:42.909Z,94.10
2019-05-01T09:19:15.451Z,93.80
2019-05-01T09:21:48.077Z,94.00
2019-05-01T09:24:23.176Z,93.80
2019-05-01T09:27:24.034Z,94.20
2019-05-01T09:29:57.933Z,93.90
2019-05-01T09:32:31.339Z,94.50
2019-05-01T09:35:15.119Z,94.40
2019-05-01T09:37:38.068Z,94.30
2019-05-01T09:40:11.420Z,93.90
2019-05-01T09:42:43.605Z,93.20
2019-05-01T09:45:17.508Z,93.60
2019-05-01T09:47:49.675Z,93.80
2019-05-01T09:50:25.999Z,93.50
2019-05-01T09:53:13.719Z,94.10
2019-05-01T09:56:19.612Z,94.00
2019-05-01T09:58:52.124Z,93.90
2019-05-01T10:01:31.691Z,94.00
2019-05-01T10:03:58.092Z,94.20
2019-05-01T10:06:30.968Z,94.00
2019-05-01T10:09:03.051Z,93.80
2019-05-01T10:11:35.992Z,94.40
2019-05-01T10:14:10.069Z,94.80
2019-05-01T10:16:42.614Z,95.00
2019-05-01T10:19:15.019Z,94.80
2019-05-01T10:21:47.473Z,94.40
2019-05-01T10:24:20.293Z,94.50
2019-05-01T10:26:55.098Z,94.60
2019-05-01T10:29:45.256Z,95.30
2019-05-01T10:32:30.251Z,95.70
2019-05-01T10:35:19.713Z,96.00
2019-05-01T10:37:52.692Z,95.80
2019-05-01T10:40:27.058Z,96.20
2019-05-01T10:42:58.840Z,96.30
2019-05-01T10:45:31.610Z,96.10
2019-05-01T10:48:04.069Z,96.10
2019-05-01T10:50:36.084Z,95.70
2019-05-01T10:53:09.166Z,95.90
2019-05-01T10:55:41.243Z,95.60
2019-05-01T10:58:18.369Z,95.80
2019-05-01T11:00:49.329Z,95.80
2019-05-01T11:03:21.980Z,95.90
2019-05-01T11:05:56.032Z,96.10
2019-05-01T11:08:28.351Z,96.40
2019-05-01T11:11:00.432Z,96.40
2019-05-01T11:13:33.087Z,96.60
2019-05-01T11:16:05.792Z,96.90
2019-05-01T11:18:38.539Z,96.60
2019-05-01T11:21:10.622Z,96.50
2019-05-01T11:23:43.172Z,96.60
2019-05-01T11:26:15.181Z,96.70
2019-05-01T11:28:47.305Z,96.80
2019-05-01T11:31:24.310Z,96.50
2019-05-01T11:34:13.804Z,96.50
2019-05-01T11:37:13.550Z,96.40
2019-05-01T11:39:57.369Z,96.60
2019-05-01T11:42:29.452Z,96.20
2019-05-01T11:45:02.840Z,96.20
2019-05-01T11:47:34.914Z,96.20
2019-05-01T11:50:08.212Z,96.50
2019-05-01T11:52:40.616Z,96.30
2019-05-01T11:55:12.949Z,95.90
2019-05-01T11:57:45.026Z,96.10
2019-05-01T12:00:18.891Z,96.30
2019-05-01T12:02:51.814Z,96.20
2019-05-01T12:05:24.509Z,96.20
2019-05-01T12:07:56.605Z,96.40
2019-05-01T12:10:29.143Z,96.10
2019-05-01T12:13:01.226Z,95.90
2019-05-01T12:15:34.526Z,95.90
2019-05-01T12:18:06.616Z,95.20
2019-05-01T12:20:39.067Z,95.40
2019-05-01T12:23:11.680Z,95.10
2019-05-01T12:25:44.228Z,95.40
2019-05-01T12:28:16.627Z,94.70
2019-05-01T12:30:49.065Z,93.50
2019-05-01T12:33:21.616Z,93.70
2019-05-01T12:35:56.382Z,92.60
2019-05-01T12:38:29.451Z,91.70
2019-05-01T12:41:18.895Z,90.10
2019-05-01T12:43:50.932Z,90.70
2019-05-01T12:46:40.712Z,90.00
2019-05-01T12:49:15.772Z,86.90
2019-05-01T12:51:48.828Z,87.10
2019-05-01T12:54:29.488Z,88.00
2019-05-01T12:57:02.013Z,87.00
2019-05-01T12:59:34.455Z,84.60
2019-05-01T13:02:07.542Z,85.70
2019-05-01T13:04:40.491Z,85.20
2019-05-01T13:07:13.058Z,84.60
2019-05-01T13:09:45.489Z,84.50
2019-05-01T13:12:18.358Z,83.60
2019-05-01T13:14:50.892Z,84.60
2019-05-01T13:17:23.006Z,84.30
2019-05-01T13:19:55.456Z,82.70
2019-05-01T13:22:27.590Z,79.40
2019-05-01T13:24:59.704Z,79.10
2019-05-01T13:27:41.915Z,78.40
2019-05-01T13:30:31.215Z,77.20
2019-05-01T13:33:04.249Z,79.40
2019-05-01T13:35:36.801Z,80.10
2019-05-01T13:38:09.443Z,79.90
2019-05-01T13:40:41.885Z,79.20
2019-05-01T13:43:14.409Z,78.50
2019-05-01T13:45:46.852Z,79.10
2019-05-01T13:48:19.298Z,77.30
2019-05-01T13:50:51.954Z,79.00
2019-05-01T13:53:24.066Z,79.60
2019-05-01T13:55:56.285Z,81.50
2019-05-01T13:58:28.412Z,79.60
2019-05-01T14:01:00.896Z,81.30
2019-05-01T14:03:33.478Z,83.60
2019-05-01T14:06:06.641Z,82.10
2019-05-01T14:08:38.763Z,81.90
2019-05-01T14:11:11.900Z,81.80
2019-05-01T14:13:44.045Z,82.40
2019-05-01T14:16:16.178Z,84.90
2019-05-01T14:18:48.292Z,82.90
2019-05-01T14:21:37.203Z,83.20
2019-05-01T14:24:26.760Z,84.70
2019-05-01T14:26:59.155Z,83.60
2019-05-01T14:29:31.910Z,82.40
2019-05-01T14:32:04.036Z,83.60
2019-05-01T14:34:37.137Z,79.80
2019-05-01T14:37:09.610Z,80.80
2019-05-01T14:39:42.167Z,78.90
2019-05-01T14:42:15.064Z,81.10
2019-05-01T14:44:50.611Z,84.10
2019-05-01T14:47:21.539Z,85.30
2019-05-01T14:49:54.388Z,84.80
2019-05-01T14:52:27.314Z,83.00
2019-05-01T14:54:59.376Z,81.70
2019-05-01T14:57:31.928Z,80.60
2019-05-01T15:00:05.194Z,82.10
2019-05-01T15:02:38.067Z,82.50
2019-05-01T15:05:10.431Z,82.40
2019-05-01T15:07:44.112Z,83.10
2019-05-01T15:10:16.694Z,83.10
2019-05-01T15:12:50.839Z,83.90
2019-05-01T15:15:37.238Z,84.60
2019-05-01T15:18:16.707Z,83.40
2019-05-01T15:20:48.831Z,85.30
2019-05-01T15:23:23.914Z,87.20
2019-05-01T15:25:56.025Z,88.50
2019-05-01T15:28:28.472Z,87.70
2019-05-01T15:31:01.176Z,87.10
2019-05-01T15:33:34.146Z,86.40
2019-05-01T15:36:06.758Z,85.10
2019-05-01T15:38:39.501Z,85.20
2019-05-01T15:41:30.802Z,84.90
2019-05-01T15:44:24.059Z,87.30
2019-05-01T15:46:57.035Z,86.60
2019-05-01T15:49:29.554Z,85.10
2019-05-01T15:52:02.104Z,86.80
2019-05-01T15:54:35.042Z,85.80
2019-05-01T15:57:07.366Z,88.70
2019-05-01T15:59:40.296Z,87.70
2019-05-01T16:02:12.404Z,88.90
2019-05-01T16:04:44.947Z,89.20
2019-05-01T16:07:18.922Z,87.50
2019-05-01T16:09:51.019Z,84.60
2019-05-01T16:12:37.477Z,81.60
2019-05-01T16:15:17.820Z,77.40
2019-05-01T16:17:49.937Z,74.00
2019-05-01T16:20:22.052Z,74.10
2019-05-01T16:22:54.211Z,74.00
2019-05-01T16:25:27.107Z,72.70
2019-05-01T16:28:00.065Z,73.80
2019-05-01T16:30:32.627Z,73.20
2019-05-01T16:33:05.735Z,72.60
2019-05-01T16:35:37.840Z,74.80
2019-05-01T16:38:22.667Z,77.40
2019-05-01T16:41:17.775Z,77.20
2019-05-01T16:43:50.489Z,77.40
2019-05-01T16:46:23.355Z,77.70
2019-05-01T16:48:56.109Z,78.20
2019-05-01T16:51:29.443Z,78.40
2019-05-01T16:54:01.600Z,78.00
2019-05-01T16:56:34.532Z,79.00
2019-05-01T16:59:07.172Z,80.30
2019-05-01T17:01:47.413Z,80.60
2019-05-01T17:04:28.007Z,81.60
2019-05-01T17:07:17.328Z,81.50
2019-05-01T17:10:08.623Z,79.50
2019-05-01T17:12:47.311Z,79.70
2019-05-01T17:15:44.983Z,79.60
2019-05-01T17:18:18.258Z,80.00
2019-05-01T17:20:50.829Z,80.80
2019-05-01T17:23:23.691Z,82.00
2019-05-01T17:25:56.259Z,82.10
2019-05-01T17:28:32.849Z,82.60
2019-05-01T17:31:04.928Z,82.80
2019-05-01T17:33:36.994Z,84.00
2019-05-01T17:36:09.628Z,84.50
2019-05-01T17:38:49.262Z,84.90
2019-05-01T17:41:16.306Z,85.90
2019-05-01T17:43:49.333Z,86.90
2019-05-01T17:46:22.617Z,88.80
2019-05-01T17:48:55.546Z,89.80
2019-05-01T17:51:27.903Z,90.00
2019-05-01T17:54:00.721Z,90.10
2019-05-01T17:56:32.835Z,90.60
2019-05-01T17:59:05.438Z,91.20
2019-05-01T18:02:10.142Z,91.70
2019-05-01T18:05:01.781Z,92.20
2019-05-01T18:07:35.017Z,93.40
2019-05-01T18:10:08.578Z,94.30
2019-05-01T18:12:41.775Z,94.90
2019-05-01T18:15:14.258Z,95.40
2019-05-01T18:17:46.698Z,95.90
2019-05-01T18:20:19.330Z,95.90
2019-05-01T18:23:08.546Z,95.90
2019-05-01T18:25:47.027Z,95.70
2019-05-01T18:28:37.296Z,95.50
2019-05-01T18:31:15.339Z,95.40
2019-05-01T18:33:47.448Z,95.20
2019-05-01T18:36:24.554Z,95.10
2019-05-01T18:39:00.503Z,95.20
2019-05-01T18:41:49.780Z,95.40
2019-05-01T18:44:22.202Z,95.30
2019-05-01T18:46:54.695Z,95.30
2019-05-01T18:49:26.839Z,95.30
2019-05-01T18:51:58.838Z,95.40
2019-05-01T18:54:35.129Z,95.50
2019-05-01T18:57:06.039Z,95.80
2019-05-01T18:59:38.792Z,96.40
2019-05-01T19:02:11.328Z,96.40
2019-05-01T19:04:43.864Z,96.50
2019-05-01T19:07:15.954Z,96.60
2019-05-01T19:09:49.264Z,96.70
2019-05-01T19:12:21.770Z,96.80
2019-05-01T19:14:55.272Z,96.80
2019-05-01T19:17:27.611Z,96.90
2019-05-01T19:20:00.149Z,97.50
2019-05-01T19:22:32.224Z,97.70
2019-05-01T19:25:04.757Z,98.30
2019-05-01T19:27:37.791Z,98.60
2019-05-01T19:30:15.013Z,99.10
2019-05-01T19:32:45.276Z,99.50
2019-05-01T19:35:17.926Z,99.60
2019-05-01T19:37:52.834Z,99.80
2019-05-01T19:40:25.097Z,99.80
2019-05-01T19:42:59.996Z,99.80
2019-05-01T19:45:32.558Z,99.70
2019-05-01T19:48:05.491Z,99.70
2019-05-01T19:50:39.874Z,99.70
2019-05-01T19:53:14.716Z,99.90
2019-05-01T19:55:46.840Z,99.90
2019-05-01T19:58:19.275Z,99.90
2019-05-01T20:00:58.988Z,99.90
2019-05-01T20:03:36.158Z,99.90
2019-05-01T20:06:08.246Z,99.90
2019-05-01T20:08:40.543Z,99.90
2019-05-01T20:11:12.764Z,99.90
2019-05-01T20:13:44.840Z,99.90
2019-05-01T20:16:19.462Z,99.90
2019-05-01T20:18:52.210Z,99.90
2019-05-01T20:21:24.335Z,99.90
2019-05-01T20:23:56.424Z,99.90
2019-05-01T20:26:32.012Z,99.90
2019-05-01T20:29:03.549Z,99.90
2019-05-01T20:31:35.674Z,99.90
2019-05-01T20:34:12.036Z,99.90
2019-05-01T20:36:42.797Z,99.90
2019-05-01T20:39:15.011Z,99.90
2019-05-01T20:41:47.551Z,99.90
2019-05-01T20:44:24.059Z,99.90
2019-05-01T20:46:58.645Z,99.90
2019-05-01T20:49:28.924Z,99.90
2019-05-01T20:52:01.884Z,99.90
2019-05-01T20:54:34.288Z,99.90
2019-05-01T20:57:20.450Z,99.90
2019-05-01T20:59:48.408Z,99.90
2019-05-01T21:02:20.671Z,99.90
2019-05-01T21:04:58.391Z,99.90
2019-05-01T21:07:37.754Z,99.90
2019-05-01T21:10:23.470Z,99.90
2019-05-01T21:12:44.015Z,99.90
2019-05-01T21:15:19.983Z,99.90
2019-05-01T21:17:50.829Z,99.90
2019-05-01T21:20:23.618Z,99.90
2019-05-01T21:22:55.678Z,99.90
2019-05-01T21:25:28.177Z,99.90
2019-05-01T21:28:00.287Z,99.90
2019-05-01T21:30:33.936Z,99.90
2019-05-01T21:33:09.713Z,99.90
2019-05-01T21:35:40.450Z,99.90
2019-05-01T21:38:12.991Z,99.90
2019-05-01T21:40:45.058Z,99.90
2019-05-01T21:43:19.257Z,99.90
2019-05-01T21:45:51.254Z,99.90
2019-05-01T21:48:24.337Z,99.90
2019-05-01T21:50:58.036Z,99.90
2019-05-01T21:53:32.663Z,99.90
2019-05-01T21:56:06.119Z,99.90
2019-05-01T21:58:38.962Z,99.90
2019-05-01T22:01:11.804Z,99.90
2019-05-01T22:03:44.381Z,99.90
2019-05-01T22:06:16.806Z,99.90
2019-05-01T22:08:48.973Z,99.90
2019-05-01T22:11:21.486Z,99.90
2019-05-01T22:13:54.979Z,99.90
2019-05-01T22:16:27.996Z,99.90
2019-05-01T22:19:13.773Z,99.90
2019-05-01T22:22:14.019Z,99.90
2019-05-01T22:25:00.138Z,99.90
2019-05-01T22:27:37.477Z,99.90
2019-05-01T22:30:32.545Z,99.90
2019-05-01T22:33:05.244Z,99.90
2019-05-01T22:35:49.294Z,99.90
2019-05-01T22:38:21.383Z,99.90
2019-05-01T22:41:10.382Z,99.90
2019-05-01T22:43:42.346Z,99.90
2019-05-01T22:46:20.596Z,99.90
2019-05-01T22:48:52.935Z,99.90
2019-05-01T22:51:25.007Z,99.90
2019-05-01T22:53:56.936Z,99.90
2019-05-01T22:56:28.960Z,99.90
2019-05-01T22:59:02.908Z,99.90
2019-05-01T23:01:35.044Z,99.90
2019-05-01T23:04:12.066Z,99.90
2019-05-01T23:06:43.136Z,99.90
2019-05-01T23:09:16.894Z,99.90
2019-05-01T23:11:49.358Z,99.90
2019-05-01T23:14:22.613Z,99.90
2019-05-01T23:17:13.533Z,99.90
2019-05-01T23:19:46.259Z,99.90
2019-05-01T23:22:18.391Z,99.90
2019-05-01T23:24:50.512Z,99.90
2019-05-01T23:27:24.354Z,99.90
2019-05-01T23:29:56.286Z,99.90
2019-05-01T23:32:28.633Z,99.90
2019-05-01T23:35:00.592Z,99.90
2019-05-01T23:37:33.182Z,99.90
2019-05-01T23:40:06.223Z,99.90
2019-05-01T23:42:38.335Z,99.90
2019-05-01T23:45:11.269Z,99.90
2019-05-01T23:47:44.231Z,99.90
2019-05-01T23:50:17.158Z,99.90
2019-05-01T23:52:49.694Z,99.90
2019-05-01T23:55:22.164Z,99.90
2019-05-01T23:57:54.155Z,99.90
